Time;durP1;ratioP1;P1;durP2;ratioP2;P2;SDS_P1;SDS_P2;PMS_P1;PMS_P2;Temp;Humidity;BMP_temperature;BMP_pressure;BME280_temperature;BME280_humidity;BME280_pressure;Samples;Min_cycle;Max_cycle;Signal;HPM_P1;HPM_P2
2023/05/02 00:02:25;;;;;;;;;18.33;15.00;;;;;13.61;67.21;101802.91;5096009;27;45371;-40
2023/05/02 00:04:50;;;;;;;;;14.33;10.33;;;;;13.77;67.50;101834.44;5096770;27;45812;-40
2023/05/02 00:07:15;;;;;;;;;20.33;14.00;;;;;13.69;67.08;101836.00;5096653;27;45309;-38
2023/05/02 00:09:41;;;;;;;;;10.67;10.67;;;;;13.70;67.55;101829.66;5097295;27;45388;-39
2023/05/02 00:12:06;;;;;;;;;12.33;9.67;;;;;13.68;67.33;101833.44;5097123;27;45438;-41
2023/05/02 00:14:31;;;;;;;;;14.67;12.00;;;;;13.63;67.47;101823.19;5096565;27;46210;-40
2023/05/02 00:16:57;;;;;;;;;14.67;13.67;;;;;13.65;67.82;101834.59;5096834;27;45346;-38
2023/05/02 00:19:22;;;;;;;;;13.33;8.33;;;;;13.62;67.53;101821.50;5096705;27;45274;-40
2023/05/02 00:21:48;;;;;;;;;10.00;10.00;;;;;13.61;67.31;101821.63;5097084;27;45357;-40
2023/05/02 00:24:14;;;;;;;;;9.00;9.00;;;;;13.59;67.84;101824.44;5096446;27;46261;-39
2023/05/02 00:26:39;;;;;;;;;14.00;9.33;;;;;13.57;67.39;101826.44;5096497;27;45379;-39
2023/05/02 00:29:05;;;;;;;;;11.00;10.00;;;;;13.54;67.90;101821.34;5096560;27;45462;-39
2023/05/02 00:31:30;;;;;;;;;13.33;9.33;;;;;13.55;67.74;101835.56;5096519;27;45240;-40
2023/05/02 00:33:56;;;;;;;;;12.67;8.67;;;;;13.51;68.14;101824.28;5096386;27;47259;-41
2023/05/02 00:36:21;;;;;;;;;13.33;9.00;;;;;13.53;67.69;101822.34;5096597;27;45380;-39
2023/05/02 00:38:46;;;;;;;;;13.00;11.67;;;;;13.53;67.98;101830.38;5096723;27;45435;-38
2023/05/02 00:41:13;;;;;;;;;11.67;10.33;;;;;13.49;68.38;101826.28;5096617;27;45442;-41
2023/05/02 00:43:38;;;;;;;;;14.00;11.33;;;;;13.48;68.04;101829.91;5096021;27;45628;-41
2023/05/02 00:46:05;;;;;;;;;13.00;10.33;;;;;13.46;68.66;101824.72;5096334;27;45365;-38
2023/05/02 00:48:31;;;;;;;;;17.67;14.33;;;;;13.43;68.85;101822.31;5095867;27;45555;-37
2023/05/02 00:50:57;;;;;;;;;12.00;10.33;;;;;13.43;68.69;101832.16;5096414;27;45534;-40
2023/05/02 00:53:22;;;;;;;;;16.00;13.33;;;;;13.43;69.04;101830.31;5096263;27;47002;-38
2023/05/02 00:55:48;;;;;;;;;13.33;10.33;;;;;13.41;68.85;101831.47;5099819;27;45408;-39
2023/05/02 00:58:16;;;;;;;;;15.00;12.00;;;;;13.37;69.43;101822.03;5099796;27;45406;-40
2023/05/02 01:01:11;;;;;;;;;12.00;12.00;;;;;13.37;68.86;101830.06;5099945;27;45275;-39
2023/05/02 01:04:02;;;;;;;;;12.67;12.67;;;;;13.38;69.02;101832.59;5099191;27;47064;-40
2023/05/02 01:06:33;;;;;;;;;18.00;12.00;;;;;13.35;68.94;101832.00;5099176;27;45312;-40
2023/05/02 01:09:02;;;;;;;;;11.00;11.00;;;;;13.33;68.81;101828.63;5081340;27;45418;-39
2023/05/02 01:11:27;;;;;;;;;11.00;10.00;;;;;13.31;69.20;101827.91;5099322;27;45347;-38
2023/05/02 01:13:56;;;;;;;;;13.33;11.67;;;;;13.28;69.49;101830.88;5099401;27;45439;-39
2023/05/02 01:16:23;;;;;;;;;19.67;15.33;;;;;13.29;68.80;101821.88;5099291;27;45402;-40
2023/05/02 01:18:49;;;;;;;;;9.00;7.00;;;;;13.22;69.44;101822.41;5099411;27;45288;-39
2023/05/02 01:21:15;;;;;;;;;13.33;11.00;;;;;13.23;69.48;101829.47;5099274;27;45469;-40
2023/05/02 01:23:59;;;;;;;;;16.00;9.00;;;;;13.23;69.86;101837.50;5098876;27;46114;-39
2023/05/02 01:26:49;;;;;;;;;18.67;14.67;;;;;13.21;69.43;101833.22;5099038;27;45376;-39
2023/05/02 01:29:17;;;;;;;;;13.00;10.00;;;;;13.19;69.73;101835.19;5099420;27;45317;-40
2023/05/02 01:31:47;;;;;;;;;20.33;12.33;;;;;13.17;69.42;101839.81;5099414;27;45313;-40
2023/05/02 01:34:12;;;;;;;;;16.67;13.67;;;;;13.15;69.82;101826.59;5098577;27;46221;-40
2023/05/02 01:36:47;;;;;;;;;17.33;13.00;;;;;13.15;70.04;101837.28;5099195;27;45842;-39
2023/05/02 01:39:17;;;;;;;;;15.67;11.00;;;;;13.12;70.09;101829.53;5099246;27;45358;-40
2023/05/02 01:41:45;;;;;;;;;13.67;10.33;;;;;13.13;69.84;101833.06;5099119;27;45247;-39
2023/05/02 01:44:14;;;;;;;;;21.33;14.33;;;;;12.26;70.16;101702.78;5098587;27;47060;-39
2023/05/02 01:46:42;;;;;;;;;13.00;10.33;;;;;12.98;70.03;101811.25;5098669;27;45326;-40
2023/05/02 01:49:09;;;;;;;;;18.33;12.00;;;;;13.07;69.89;101833.63;5098763;27;45227;-39
2023/05/02 01:51:39;;;;;;;;;16.67;12.67;;;;;12.97;70.51;101822.88;5098977;27;45327;-40
2023/05/02 01:54:07;;;;;;;;;16.33;12.33;;;;;13.04;70.84;101845.41;5098555;27;46533;-39
2023/05/02 01:56:35;;;;;;;;;15.00;12.00;;;;;12.98;70.32;101838.78;5098687;27;45270;-40
2023/05/02 01:59:07;;;;;;;;;17.67;14.00;;;;;12.96;70.27;101834.56;5098793;27;45320;-39
2023/05/02 02:01:35;;;;;;;;;12.67;12.00;;;;;13.00;70.55;101844.00;5098772;27;45385;-39
2023/05/02 02:04:01;;;;;;;;;16.67;13.00;;;;;12.94;71.13;101834.69;5098186;27;46074;-39
2023/05/02 02:06:26;;;;;;;;;15.67;14.67;;;;;12.95;71.26;101835.53;5098350;27;45744;-39
2023/05/02 02:08:52;;;;;;;;;19.33;15.00;;;;;12.95;71.28;101832.88;5098739;27;45259;-40
2023/05/02 02:11:33;;;;;;;;;18.00;13.33;;;;;12.93;71.21;101833.00;5098586;27;45276;-40
2023/05/02 02:14:08;;;;;;;;;17.67;12.00;;;;;12.92;71.40;101839.31;5098538;27;45427;-40
2023/05/02 02:16:37;;;;;;;;;16.00;14.00;;;;;12.91;71.25;101832.28;5098640;27;45442;-40
2023/05/02 02:19:09;;;;;;;;;18.33;12.67;;;;;12.77;71.47;101815.78;5098336;27;45488;-39
2023/05/02 02:21:37;;;;;;;;;18.33;13.00;;;;;12.89;71.90;101833.41;5098664;27;45269;-39
2023/05/02 02:24:05;;;;;;;;;21.67;13.67;;;;;12.88;71.43;101839.72;5098131;27;46101;-40
2023/05/02 02:26:30;;;;;;;;;13.00;12.67;;;;;12.85;71.88;101838.19;5098151;27;45275;-38
2023/05/02 02:28:56;;;;;;;;;20.33;14.00;;;;;12.82;72.12;101841.13;5098215;27;45319;-39
2023/05/02 02:31:24;;;;;;;;;17.67;13.00;;;;;12.80;71.90;101848.41;5098638;27;45508;-39
2023/05/02 02:33:50;;;;;;;;;18.33;14.67;;;;;12.80;71.83;101848.41;5098002;27;46696;-41
2023/05/02 02:36:27;;;;;;;;;21.67;15.00;;;;;12.81;71.76;101854.59;5098073;27;45203;-38
2023/05/02 02:39:24;;;;;;;;;19.33;16.00;;;;;12.80;71.46;101853.75;5098359;27;45256;-39
2023/05/02 02:42:31;;;;;;;;;19.33;14.67;;;;;12.78;71.33;101854.88;5098587;27;45341;-40
2023/05/02 02:45:05;;;;;;;;;22.67;15.00;;;;;12.76;71.93;101859.50;5097566;27;46322;-39
2023/05/02 02:47:50;;;;;;;;;13.00;13.00;;;;;12.59;71.75;101837.78;5097543;27;45324;-40
2023/05/02 02:50:34;;;;;;;;;18.67;15.00;;;;;12.71;71.95;101860.72;5097907;27;45499;-39
2023/05/02 02:53:01;;;;;;;;;18.00;13.00;;;;;12.70;72.28;101867.06;5098132;27;45429;-41
2023/05/02 02:55:54;;;;;;;;;13.33;12.00;;;;;12.68;71.79;101866.34;5097577;27;46175;-39
2023/05/02 02:58:35;;;;;;;;;20.00;18.00;;;;;12.67;72.10;101871.81;5097555;27;45325;-41
2023/05/02 03:01:04;;;;;;;;;13.33;9.00;;;;;12.64;72.97;101875.63;5097796;27;45189;-40
2023/05/02 03:03:32;;;;;;;;;16.00;12.33;;;;;12.62;72.07;101868.69;5097962;27;45460;-40
2023/05/02 03:05:58;;;;;;;;;16.00;12.00;;;;;12.59;72.87;101856.44;5078924;27;45721;-41
2023/05/02 03:08:24;;;;;;;;;19.00;14.00;;;;;12.61;72.80;101875.88;5097392;27;45356;-41
2023/05/02 03:10:50;;;;;;;;;18.00;13.33;;;;;12.60;72.87;101857.28;5097536;27;45303;-41
2023/05/02 03:13:15;;;;;;;;;15.67;12.67;;;;;12.60;73.03;101858.16;5097759;27;45387;-41
2023/05/02 03:15:40;;;;;;;;;19.33;14.67;;;;;12.62;73.08;101852.69;5079017;27;46103;-40
2023/05/02 03:18:06;;;;;;;;;20.00;15.33;;;;;12.62;72.79;101856.19;5096990;27;45226;-40
2023/05/02 03:20:31;;;;;;;;;25.00;16.00;;;;;12.60;72.73;101858.16;5097314;27;45301;-40
2023/05/02 03:22:56;;;;;;;;;20.00;17.67;;;;;12.59;72.67;101859.13;5097799;27;45322;-40
2023/05/02 03:25:21;;;;;;;;;13.00;8.33;;;;;12.59;73.13;101864.47;5097373;27;47283;-40
2023/05/02 03:27:47;;;;;;;;;20.00;15.67;;;;;12.59;73.01;101866.28;5097193;27;45423;-39
2023/05/02 03:30:12;;;;;;;;;23.00;16.00;;;;;12.51;72.53;101855.41;5097240;27;45287;-41
2023/05/02 03:32:38;;;;;;;;;24.33;17.00;;;;;12.56;73.43;101872.75;5097546;27;45425;-40
2023/05/02 03:35:03;;;;;;;;;27.67;15.00;;;;;12.53;73.45;101873.00;5097142;27;45321;-40
2023/05/02 03:37:28;;;;;;;;;16.67;14.67;;;;;12.54;73.57;101871.19;5097370;27;45186;-41
2023/05/02 03:39:54;;;;;;;;;19.33;18.00;;;;;12.53;73.80;101874.84;5097490;27;45317;-41
2023/05/02 03:42:20;;;;;;;;;21.00;15.00;;;;;12.51;73.45;101874.94;5097370;27;45305;-39
2023/05/02 03:44:45;;;;;;;;;24.33;13.00;;;;;12.52;73.10;101878.50;5078363;27;46445;-41
2023/05/02 03:47:12;;;;;;;;;20.33;18.00;;;;;12.48;72.91;101870.75;5096787;27;45420;-40
2023/05/02 03:49:38;;;;;;;;;22.33;14.33;;;;;12.49;72.64;101882.25;5097136;27;45444;-42
2023/05/02 03:52:03;;;;;;;;;19.67;19.00;;;;;12.46;73.39;101883.34;5097082;27;45345;-41
2023/05/02 03:54:31;;;;;;;;;21.33;14.33;;;;;12.45;73.42;101880.81;5096772;27;45513;-41
2023/05/02 03:56:57;;;;;;;;;22.67;20.67;;;;;12.43;72.84;101883.63;5095512;27;45358;-41
2023/05/02 03:59:22;;;;;;;;;29.00;18.33;;;;;12.40;73.22;101870.56;5096127;27;45346;-40
2023/05/02 04:01:49;;;;;;;;;22.33;18.00;;;;;12.41;73.53;101879.41;5097207;27;45313;-40
2023/05/02 04:04:15;;;;;;;;;25.00;22.33;;;;;12.24;73.18;101849.66;5096638;27;47298;-40
2023/05/02 04:06:40;;;;;;;;;23.67;16.67;;;;;12.37;73.16;101873.47;5096618;27;45435;-40
2023/05/02 04:09:06;;;;;;;;;29.67;18.67;;;;;12.37;73.34;101876.13;5096665;27;45382;-41
2023/05/02 04:11:31;;;;;;;;;19.67;14.67;;;;;12.35;74.09;101874.59;5097133;27;45369;-39
2023/05/02 04:13:57;;;;;;;;;24.00;20.67;;;;;12.34;73.74;101878.22;5096582;27;46071;-40
2023/05/02 04:16:22;;;;;;;;;23.00;17.00;;;;;12.31;73.97;101879.34;5095165;27;45397;-39
2023/05/02 04:18:47;;;;;;;;;26.33;21.00;;;;;12.33;74.61;101873.88;5096373;27;45354;-41
2023/05/02 04:21:13;;;;;;;;;22.67;20.00;;;;;12.32;74.22;101880.19;5096881;27;45444;-40
2023/05/02 04:23:38;;;;;;;;;20.00;16.33;;;;;12.31;74.46;101876.66;5096458;27;45400;-40
2023/05/02 04:26:04;;;;;;;;;30.00;17.33;;;;;12.33;74.68;101882.72;5096462;27;45424;-41
2023/05/02 04:28:30;;;;;;;;;18.33;16.33;;;;;12.32;74.28;101893.53;5096930;27;45262;-40
2023/05/02 04:30:56;;;;;;;;;20.33;16.33;;;;;12.32;74.44;101890.84;5100098;27;45242;-39
2023/05/02 04:33:22;;;;;;;;;22.00;16.00;;;;;12.28;73.78;101892.94;5099931;27;46234;-41
2023/05/02 04:35:47;;;;;;;;;21.67;20.00;;;;;12.32;73.91;101893.53;5099729;27;45412;-40
2023/05/02 04:38:13;;;;;;;;;23.33;17.00;;;;;12.29;74.50;101889.28;5100053;27;45395;-40
2023/05/02 04:40:39;;;;;;;;;20.67;18.00;;;;;12.32;74.68;101902.38;5100467;27;45385;-41
2023/05/02 04:43:04;;;;;;;;;25.67;18.33;;;;;12.32;74.20;101910.38;5099726;27;47009;-40
2023/05/02 04:45:30;;;;;;;;;23.00;18.33;;;;;12.34;74.34;101907.56;5099460;27;45434;-43
2023/05/02 04:47:55;;;;;;;;;24.33;21.00;;;;;12.35;74.52;101919.97;5100054;27;45329;-41
2023/05/02 04:50:20;;;;;;;;;25.33;22.33;;;;;12.34;74.83;101926.25;5099644;27;45424;-40
2023/05/02 04:52:46;;;;;;;;;25.33;19.67;;;;;12.34;74.29;101927.09;5099684;27;46184;-41
2023/05/02 04:55:11;;;;;;;;;32.33;18.67;;;;;12.34;74.49;101923.56;5099717;27;45372;-40
2023/05/02 04:57:38;;;;;;;;;24.33;21.00;;;;;12.37;74.46;101936.66;5099781;27;45369;-41
2023/05/02 05:00:04;;;;;;;;;31.33;21.67;;;;;12.36;73.91;101930.50;5099952;27;45361;-40
2023/05/02 05:02:30;;;;;;;;;19.33;18.00;;;;;12.38;73.96;101931.19;5099364;27;47184;-39
2023/05/02 05:04:55;;;;;;;;;28.00;23.00;;;;;12.39;73.90;101935.56;5099328;27;45216;-41
2023/05/02 05:07:21;;;;;;;;;33.67;21.33;;;;;12.39;74.30;101930.25;5099505;27;45487;-40
2023/05/02 05:09:46;;;;;;;;;26.67;23.33;;;;;12.38;74.41;101947.19;5098594;27;45391;-40
2023/05/02 05:12:12;;;;;;;;;23.67;18.67;;;;;12.40;74.13;101933.75;5099336;27;45217;-39
2023/05/02 05:14:37;;;;;;;;;22.67;18.00;;;;;12.41;74.12;101941.63;5098596;27;45450;-40
2023/05/02 05:17:03;;;;;;;;;29.67;20.00;;;;;12.40;73.94;101941.75;5099805;27;45413;-46
2023/05/02 05:19:28;;;;;;;;;26.67;23.00;;;;;12.44;73.51;101948.53;5099714;27;45321;-40
2023/05/02 05:21:53;;;;;;;;;29.00;25.00;;;;;12.45;73.93;101951.06;5099257;27;46270;-39
2023/05/02 05:24:19;;;;;;;;;27.67;21.33;;;;;12.48;73.59;101957.97;5099451;27;45373;-40
2023/05/02 05:26:44;;;;;;;;;26.00;19.67;;;;;12.47;73.61;101956.25;5081135;27;45411;-40
2023/05/02 05:29:09;;;;;;;;;26.67;24.67;;;;;12.50;73.83;101964.00;5099506;27;45439;-41
2023/05/02 05:31:35;;;;;;;;;29.00;22.67;;;;;12.54;73.51;101968.13;5098189;27;46339;-40
2023/05/02 05:34:01;;;;;;;;;25.33;18.67;;;;;12.59;73.49;101973.06;5098935;27;45242;-39
2023/05/02 05:36:27;;;;;;;;;20.33;18.67;;;;;12.60;73.41;101972.06;5099086;27;45267;-40
2023/05/02 05:38:52;;;;;;;;;26.33;22.00;;;;;12.64;73.19;101977.06;5099317;27;45410;-39
2023/05/02 05:41:17;;;;;;;;;28.67;21.33;;;;;12.64;73.21;101971.72;5098402;27;46170;-40
2023/05/02 05:43:43;;;;;;;;;32.67;20.67;;;;;12.71;73.40;101983.53;5098716;27;45417;-38
2023/05/02 05:46:08;;;;;;;;;26.33;20.33;;;;;12.76;72.78;101982.31;5098826;27;45433;-39
2023/05/02 05:48:33;;;;;;;;;28.00;21.67;;;;;12.77;73.14;101982.19;5099392;27;45572;-38
2023/05/02 05:51:05;;;;;;;;;25.00;22.67;;;;;12.80;72.75;101992.59;5098503;27;45472;-39
2023/05/02 05:53:31;;;;;;;;;36.33;25.67;;;;;12.80;72.84;101981.06;5098783;27;45272;-39
2023/05/02 05:55:56;;;;;;;;;67.00;48.50;;;;;12.87;72.44;101988.44;5098825;27;45345;-39
2023/05/02 05:58:22;;;;;;;;;40.33;29.00;;;;;12.92;72.35;101990.72;5080633;27;45476;-41
2023/05/02 06:00:48;;;;;;;;;39.67;33.33;;;;;12.95;72.20;101996.63;5098070;27;46053;-41
2023/05/02 06:03:13;;;;;;;;;28.33;23.33;;;;;12.99;72.60;101997.22;5098560;27;45310;-41
2023/05/02 06:05:38;;;;;;;;;33.33;23.00;;;;;13.04;72.56;102002.16;5098657;27;45720;-41
2023/05/02 06:08:04;;;;;;;;;39.33;27.33;;;;;13.10;71.64;102012.31;5098954;27;45344;-38
2023/05/02 06:10:30;;;;;;;;;30.33;23.00;;;;;13.13;71.41;102018.25;5098277;27;46152;-39
2023/05/02 06:12:56;;;;;;;;;34.00;24.67;;;;;13.15;71.78;102010.13;5098633;27;45262;-39
2023/05/02 06:15:21;;;;;;;;;32.00;26.50;;;;;13.12;71.32;101997.84;5098475;27;45429;-39
2023/05/02 06:17:47;;;;;;;;;35.00;23.33;;;;;13.27;71.53;102013.56;5098497;27;45423;-40
2023/05/02 06:20:12;;;;;;;;;32.33;26.00;;;;;13.31;71.82;102018.50;5097948;27;46429;-41
2023/05/02 06:22:38;;;;;;;;;31.00;26.67;;;;;13.38;71.22;102019.66;5098263;27;45346;-41
2023/05/02 06:25:04;;;;;;;;;30.67;24.67;;;;;13.44;70.83;102019.16;5098494;27;45251;-40
2023/05/02 06:27:30;;;;;;;;;35.67;31.00;;;;;13.49;70.83;102021.41;5098373;27;45452;-40
2023/05/02 06:29:55;;;;;;;;;34.00;29.00;;;;;13.53;70.49;102016.66;5098064;27;46416;-40
2023/05/02 06:32:21;;;;;;;;;32.67;31.33;;;;;13.55;70.02;102026.22;5098204;27;45589;-40
2023/05/02 06:34:46;;;;;;;;;34.33;28.00;;;;;13.62;70.17;102016.69;5098237;27;45586;-39
2023/05/02 06:37:12;;;;;;;;;37.67;30.00;;;;;13.67;70.41;102029.63;5098237;27;45279;-40
2023/05/02 06:39:37;;;;;;;;;38.33;30.00;;;;;13.68;70.10;102024.16;5097865;27;47253;-40
2023/05/02 06:42:02;;;;;;;;;33.00;26.67;;;;;13.82;69.85;102035.44;5097818;27;45275;-40
2023/05/02 06:44:28;;;;;;;;;37.33;30.33;;;;;13.89;69.75;102031.25;5097950;27;45278;-39
2023/05/02 06:46:56;;;;;;;;;42.67;33.33;;;;;13.98;68.96;102039.28;5098236;27;45345;-40
2023/05/02 06:49:22;;;;;;;;;35.67;28.00;;;;;14.11;69.05;102040.88;5097754;27;46265;-40
2023/05/02 06:51:48;;;;;;;;;35.00;29.67;;;;;14.24;68.59;102049.47;5096556;27;45250;-39
2023/05/02 06:54:14;;;;;;;;;35.67;26.33;;;;;14.38;68.06;102045.56;5097783;27;45418;-39
2023/05/02 06:56:40;;;;;;;;;35.00;24.67;;;;;14.63;67.75;102041.53;5097891;27;45493;-41
2023/05/02 06:59:05;;;;;;;;;30.67;26.33;;;;;15.36;66.04;102039.13;5097512;27;46153;-40
2023/05/02 07:01:31;;;;;;;;;31.67;26.33;;;;;16.40;63.39;102043.25;5097634;27;45310;-40
2023/05/02 07:03:56;;;;;;;;;32.33;27.00;;;;;17.39;60.18;102032.25;5079385;27;45672;-40
2023/05/02 07:06:22;;;;;;;;;34.00;27.33;;;;;18.23;57.64;102027.03;5097633;27;45353;-41
2023/05/02 07:08:47;;;;;;;;;29.67;23.67;;;;;18.85;55.67;102033.66;5097639;27;46413;-40
2023/05/02 07:11:13;;;;;;;;;88.00;65.00;;;;;19.40;54.65;102032.03;5097431;27;45405;-40
2023/05/02 07:13:38;;;;;;;;;34.33;26.00;;;;;19.87;52.21;102032.03;5097690;27;45303;-43
2023/05/02 07:16:04;;;;;;;;;54.67;40.33;;;;;20.27;54.65;102026.56;5097875;27;45296;-41
2023/05/02 07:18:29;;;;;;;;;32.33;29.00;;;;;20.42;51.32;102012.09;5096838;27;45443;-40
2023/05/02 07:20:55;;;;;;;;;31.67;23.33;;;;;20.86;51.30;102019.56;5097541;27;45518;-40
2023/05/02 07:23:20;;;;;;;;;28.33;24.00;;;;;21.15;50.05;102031.41;5097457;27;45355;-40
2023/05/02 07:25:46;;;;;;;;;27.67;25.00;;;;;21.50;48.90;102027.19;5079264;27;45519;-41
2023/05/02 07:28:12;;;;;;;;;34.00;25.00;;;;;21.85;47.54;102019.28;5096958;27;45407;-40
2023/05/02 07:30:37;;;;;;;;;30.00;27.33;;;;;22.25;47.73;102030.59;5097205;27;45375;-41
2023/05/02 07:33:02;;;;;;;;;25.00;21.00;;;;;22.57;46.38;102021.09;5097336;27;45425;-41
2023/05/02 07:35:28;;;;;;;;;25.75;24.50;;;;;22.89;46.13;102027.84;5097376;27;45307;-40
2023/05/02 07:37:53;;;;;;;;;25.25;19.75;;;;;23.27;45.12;102031.06;5097064;27;45282;-41
2023/05/02 07:40:18;;;;;;;;;21.75;18.75;;;;;23.80;44.20;102030.53;5096223;27;45522;-41
2023/05/02 07:42:44;;;;;;;;;23.75;19.00;;;;;24.54;42.38;102016.94;5097116;27;45383;-41
2023/05/02 07:45:09;;;;;;;;;26.00;20.00;;;;;25.80;40.39;102024.09;5097176;27;45129;-40
2023/05/02 07:47:35;;;;;;;;;24.25;19.75;;;;;27.47;37.57;102013.50;5096893;27;45963;-41
2023/05/02 07:50:03;;;;;;;;;22.75;21.00;;;;;29.34;33.74;102024.13;5078438;27;45410;-40
2023/05/02 07:52:28;;;;;;;;;31.25;27.75;;;;;30.67;33.23;102029.44;5097042;27;45302;-40
2023/05/02 07:54:54;;;;;;;;;22.75;22.00;;;;;31.58;31.24;102034.66;5097461;27;45316;-40
2023/05/02 07:57:19;;;;;;;;;24.00;18.75;;;;;32.39;30.03;102027.28;5096850;27;46033;-42
2023/05/02 07:59:44;;;;;;;;;21.25;20.25;;;;;33.09;28.59;102019.84;5096985;27;45230;-41
2023/05/02 08:02:12;;;;;;;;;24.25;20.50;;;;;34.04;27.75;102027.97;5095551;27;45421;-41
2023/05/02 08:04:37;;;;;;;;;19.60;16.20;;;;;34.80;26.39;102037.41;5100698;27;45458;-40
2023/05/02 08:07:03;;;;;;;;;19.00;17.00;;;;;35.47;25.47;102038.91;5100101;27;46131;-40
2023/05/02 08:09:28;;;;;;;;;20.25;17.50;;;;;36.04;26.33;102036.72;5100461;27;45292;-41
2023/05/02 08:11:54;;;;;;;;;19.25;18.00;;;;;36.31;23.54;101997.44;5100512;27;45394;-40
2023/05/02 08:14:19;;;;;;;;;19.25;15.00;;;;;37.27;22.73;102039.22;5100829;27;45368;-40
2023/05/02 08:16:44;;;;;;;;;23.25;16.50;;;;;38.03;22.83;102048.53;5081797;27;47968;-40
2023/05/02 08:19:10;;;;;;;;;18.25;15.00;;;;;38.47;22.18;102047.28;5100199;27;45617;-40
2023/05/02 08:21:35;;;;;;;;;17.25;15.25;;;;;38.86;21.91;102044.94;5100350;27;45531;-40
2023/05/02 08:24:01;;;;;;;;;14.50;14.50;;;;;39.13;20.72;102049.69;5100333;27;45384;-39
2023/05/02 08:26:27;;;;;;;;;17.25;17.25;;;;;39.56;21.23;102043.81;5100249;27;46273;-40
2023/05/02 08:28:53;;;;;;;;;17.00;17.00;;;;;40.08;19.55;102051.88;5100251;27;45293;-40
2023/05/02 08:31:19;;;;;;;;;14.20;11.60;;;;;40.24;20.51;102055.13;5100379;27;45389;-41
2023/05/02 08:33:45;;;;;;;;;20.20;16.80;;;;;40.49;20.23;102048.88;5100535;27;45318;-40
2023/05/02 08:36:11;;;;;;;;;23.50;17.50;;;;;40.66;20.39;102051.00;5100074;27;46068;-41
2023/05/02 08:38:36;;;;;;;;;17.20;13.00;;;;;40.59;23.27;102053.44;5100194;27;45387;-40
2023/05/02 08:41:02;;;;;;;;;16.00;12.75;;;;;40.39;20.48;102051.94;5100181;27;45223;-40
2023/05/02 08:43:30;;;;;;;;;19.25;18.75;;;;;40.65;19.86;102060.50;5100389;27;45347;-40
2023/05/02 08:45:58;;;;;;;;;19.40;17.00;;;;;41.00;19.30;102049.53;5099672;27;45550;-40
2023/05/02 08:48:26;;;;;;;;;16.20;14.80;;;;;41.56;17.77;102053.53;5099946;27;45386;-39
2023/05/02 08:50:53;;;;;;;;;21.20;16.60;;;;;42.08;18.69;102068.38;5100265;27;45262;-39
2023/05/02 08:53:19;;;;;;;;;18.00;15.80;;;;;42.51;19.82;102070.31;5116211;27;45509;-40
2023/05/02 08:55:45;;;;;;;;;18.80;14.80;;;;;42.58;17.57;102072.63;5099743;27;46464;-40
2023/05/02 08:58:11;;;;;;;;;18.40;15.20;;;;;42.54;17.53;102075.25;5081364;27;45406;-40
2023/05/02 09:00:41;;;;;;;;;18.00;18.00;;;;;42.55;16.74;102071.28;5100003;27;45814;-39
2023/05/02 09:03:10;;;;;;;;;20.20;18.20;;;;;42.51;17.18;102073.13;5099708;27;45257;-38
2023/05/02 09:05:40;;;;;;;;;20.20;17.40;;;;;42.65;17.56;102069.31;5099439;27;47204;-39
2023/05/02 09:08:06;;;;;;;;;25.20;19.40;;;;;42.88;16.81;102067.13;5099321;27;45325;-40
2023/05/02 09:10:35;;;;;;;;;22.00;19.20;;;;;42.88;18.03;102081.13;5099682;27;45438;-39
2023/05/02 09:13:38;;;;;;;;;26.80;21.40;;;;;42.34;20.15;102076.75;5099941;27;45547;-40
2023/05/02 09:16:08;;;;;;;;;23.60;21.20;;;;;42.23;18.44;102091.44;5098700;27;46035;-40
2023/05/02 09:18:42;;;;;;;;;31.00;23.00;;;;;42.10;17.37;102085.66;5098702;27;45256;-40
2023/05/02 09:21:13;;;;;;;;;27.20;26.40;;;;;41.79;19.98;102099.72;5099631;27;45472;-40
2023/05/02 09:23:43;;;;;;;;;31.80;26.80;;;;;41.57;18.32;102097.06;5099537;27;45235;-39
2023/05/02 09:26:22;;;;;;;;;31.80;26.00;;;;;41.40;19.87;102102.63;5099638;27;46386;-41
2023/05/02 09:28:49;;;;;;;;;24.00;21.60;;;;;41.31;17.56;102111.75;5099419;27;45384;-39
2023/05/02 09:31:20;;;;;;;;;23.20;21.20;;;;;41.00;18.89;102111.75;5099053;27;45397;-39
2023/05/02 09:33:46;;;;;;;;;22.60;16.40;;;;;41.11;18.25;102129.88;5099599;27;45415;-40
2023/05/02 09:36:14;;;;;;;;;17.50;14.50;;;;;41.24;19.33;102130.94;5099320;27;46074;-40
2023/05/02 09:38:41;;;;;;;;;20.60;16.00;;;;;41.09;18.29;102120.22;5099033;27;45239;-39
2023/05/02 09:41:06;;;;;;;;;19.20;16.80;;;;;41.11;18.45;102124.31;5099342;27;45339;-41
2023/05/02 09:43:32;;;;;;;;;23.25;19.50;;;;;41.28;19.01;102129.13;5099062;27;45465;-40
2023/05/02 09:45:59;;;;;;;;;19.25;19.25;;;;;41.03;19.49;102136.25;5098680;27;45451;-40
2023/05/02 09:48:27;;;;;;;;;20.60;19.20;;;;;41.06;19.34;102145.97;5098953;27;45398;-40
2023/05/02 09:50:52;;;;;;;;;15.60;15.60;;;;;41.04;18.15;102145.44;5099021;27;45422;-40
2023/05/02 09:53:17;;;;;;;;;17.25;14.75;;;;;41.43;18.50;102125.13;5099427;27;45294;-42
2023/05/02 09:55:43;;;;;;;;;16.00;13.75;;;;;41.90;17.63;102128.22;5098803;27;46184;-39
2023/05/02 09:58:22;;;;;;;;;19.25;16.75;;;;;41.76;17.68;102133.09;5098129;27;45214;-40
2023/05/02 10:00:49;;;;;;;;;15.40;15.00;;;;;41.79;18.09;102126.84;5099289;27;45309;-40
2023/05/02 10:03:16;;;;;;;;;15.20;13.80;;;;;41.98;16.33;102130.22;5099220;27;45427;-39
2023/05/02 10:05:43;;;;;;;;;13.80;13.80;;;;;42.27;16.46;102135.19;5098688;27;45371;-40
2023/05/02 10:08:10;;;;;;;;;12.20;9.20;;;;;42.60;16.54;102120.66;5098659;27;45177;-40
2023/05/02 10:10:38;;;;;;;;;18.20;13.20;;;;;42.97;17.41;102119.13;5098244;27;45364;-41
2023/05/02 10:13:04;;;;;;;;;17.00;11.80;;;;;43.19;18.42;102126.47;5098951;27;45459;-40
2023/05/02 10:15:32;;;;;;;;;17.60;13.80;;;;;43.25;17.93;102121.53;5098446;27;46166;-41
2023/05/02 10:18:00;;;;;;;;;12.80;11.60;;;;;43.05;17.14;102118.28;5098581;27;45495;-40
2023/05/02 10:20:31;;;;;;;;;10.00;9.00;;;;;42.79;16.54;102118.34;5098670;27;45456;-40
2023/05/02 10:23:00;;;;;;;;;13.60;10.80;;;;;42.83;17.40;102121.31;5099006;27;45319;-40
2023/05/02 10:25:25;;;;;;;;;15.80;13.00;;;;;42.98;15.98;102125.53;5098194;27;46539;-39
2023/05/02 10:27:52;;;;;;;;;10.50;9.75;;;;;43.20;16.33;102124.50;5097354;27;45462;-40
2023/05/02 10:30:18;;;;;;;;;9.40;8.40;;;;;43.41;17.07;102119.78;5098409;27;45419;-41
2023/05/02 10:32:46;;;;;;;;;10.20;9.20;;;;;43.16;17.64;102120.75;5098426;27;45461;-40
2023/05/02 10:35:12;;;;;;;;;12.40;10.20;;;;;43.09;16.47;102119.28;5098343;27;46188;-40
2023/05/02 10:37:39;;;;;;;;;11.75;10.25;;;;;43.06;16.41;102114.31;5098100;27;45419;-40
2023/05/02 10:40:10;;;;;;;;;11.80;11.40;;;;;43.18;15.99;102124.00;5098172;27;45266;-39
2023/05/02 10:42:38;;;;;;;;;9.80;9.80;;;;;42.92;17.74;102124.09;5098648;27;45441;-41
2023/05/02 10:45:04;;;;;;;;;12.80;11.40;;;;;42.67;17.45;102123.00;5097784;27;46062;-40
2023/05/02 10:47:30;;;;;;;;;11.60;11.60;;;;;42.38;17.42;102121.69;5097945;27;45376;-39
2023/05/02 10:49:59;;;;;;;;;12.20;10.20;;;;;42.03;18.39;102129.22;5098167;27;45291;-40
2023/05/02 10:52:36;;;;;;;;;14.60;10.60;;;;;41.71;17.35;102128.47;5097997;27;45381;-40
2023/05/02 10:55:16;;;;;;;;;13.00;12.00;;;;;41.47;18.28;102126.13;5097503;27;46368;-40
2023/05/02 10:57:57;;;;;;;;;12.80;11.60;;;;;40.86;17.74;102133.34;5097800;27;45283;-40
2023/05/02 11:00:26;;;;;;;;;11.20;11.20;;;;;40.74;18.30;102125.53;5098237;27;45337;-39
2023/05/02 11:02:52;;;;;;;;;12.60;12.20;;;;;39.97;18.37;102125.69;5097653;27;45317;-41
2023/05/02 11:05:17;;;;;;;;;11.50;10.00;;;;;39.99;18.30;102132.63;5097614;27;46346;-40
2023/05/02 11:07:43;;;;;;;;;14.50;12.00;;;;;39.94;18.27;102127.13;5097900;27;45424;-40
2023/05/02 11:10:15;;;;;;;;;15.25;13.50;;;;;39.89;18.37;102127.25;5097812;27;45324;-39
2023/05/02 11:12:47;;;;;;;;;14.00;11.40;;;;;39.77;19.16;102124.19;5097980;27;45505;-39